createdAt,value
2017-12-12T00:00:20.595Z,99.99
2017-12-12T00:01:01.193Z,99.99
2017-12-12T00:01:41.776Z,99.99
2017-12-12T00:02:22.375Z,99.99
2017-12-12T00:03:02.956Z,99.99
2017-12-12T00:03:43.604Z,99.99
2017-12-12T00:04:24.168Z,99.99
2017-12-12T00:05:04.788Z,99.99
2017-12-12T00:05:45.329Z,99.99
2017-12-12T00:06:25.902Z,99.99
2017-12-12T00:07:06.489Z,99.99
2017-12-12T00:07:47.086Z,99.99
2017-12-12T00:08:27.644Z,99.99
2017-12-12T00:09:08.210Z,99.99
2017-12-12T00:09:48.822Z,99.99
2017-12-12T00:10:29.395Z,99.99
2017-12-12T00:11:09.997Z,99.99
2017-12-12T00:11:50.573Z,99.99
2017-12-12T00:12:31.131Z,99.99
2017-12-12T00:13:11.717Z,99.99
2017-12-12T00:13:52.272Z,99.99
2017-12-12T00:14:32.842Z,99.99
2017-12-12T00:15:13.427Z,99.99
2017-12-12T00:15:54.002Z,99.99
2017-12-12T00:16:34.558Z,99.99
2017-12-12T00:17:15.161Z,99.99
2017-12-12T00:17:55.717Z,99.99
2017-12-12T00:18:36.296Z,99.99
2017-12-12T00:19:16.850Z,99.99
2017-12-12T00:19:57.416Z,99.99
2017-12-12T00:20:38.008Z,99.99
2017-12-12T00:21:18.607Z,99.99
2017-12-12T00:21:59.170Z,99.99
2017-12-12T00:22:39.785Z,99.99
2017-12-12T00:23:20.382Z,99.73
2017-12-12T00:24:00.940Z,99.83
2017-12-12T00:24:41.537Z,99.73
2017-12-12T00:25:22.184Z,99.99
2017-12-12T00:26:02.753Z,99.83
2017-12-12T00:26:43.331Z,99.99
2017-12-12T00:27:23.892Z,99.99
2017-12-12T00:28:04.477Z,99.83
2017-12-12T00:28:45.100Z,99.99
2017-12-12T00:29:25.655Z,99.99
2017-12-12T00:30:06.240Z,99.73
2017-12-12T00:30:46.813Z,99.73
2017-12-12T00:31:27.380Z,99.83
2017-12-12T00:32:07.973Z,99.99
2017-12-12T00:32:48.566Z,99.99
2017-12-12T00:33:29.126Z,99.73
2017-12-12T00:34:09.709Z,99.73
2017-12-12T00:34:50.260Z,99.99
2017-12-12T00:35:30.815Z,99.99
2017-12-12T00:36:11.390Z,99.99
2017-12-12T00:36:51.981Z,99.92
2017-12-12T00:37:32.577Z,99.99
2017-12-12T00:38:13.139Z,99.99
2017-12-12T00:38:53.725Z,99.92
2017-12-12T00:39:34.302Z,99.99
2017-12-12T00:40:14.864Z,99.92
2017-12-12T00:40:55.483Z,99.99
2017-12-12T00:41:36.177Z,99.99
2017-12-12T00:42:16.755Z,99.99
2017-12-12T00:42:57.313Z,99.99
2017-12-12T00:43:37.896Z,99.99
2017-12-12T00:44:18.491Z,99.73
2017-12-12T00:44:59.076Z,99.99
2017-12-12T00:45:39.654Z,99.99
2017-12-12T00:46:20.222Z,99.92
2017-12-12T00:47:00.785Z,99.99
2017-12-12T00:47:41.370Z,99.99
2017-12-12T00:48:21.952Z,99.99
2017-12-12T00:49:02.523Z,99.99
2017-12-12T00:49:43.089Z,99.73
2017-12-12T00:50:23.655Z,99.99
2017-12-12T00:51:04.256Z,99.99
2017-12-12T00:51:44.831Z,99.92
2017-12-12T00:52:25.402Z,99.73
2017-12-12T00:53:05.995Z,99.73
2017-12-12T00:53:46.573Z,99.73
2017-12-12T00:54:27.148Z,99.99
2017-12-12T00:55:07.698Z,99.99
2017-12-12T00:55:48.265Z,99.99
2017-12-12T00:56:28.849Z,99.99
2017-12-12T00:57:09.411Z,99.99
2017-12-12T00:57:49.986Z,99.99
2017-12-12T00:58:30.574Z,99.99
2017-12-12T00:59:11.118Z,99.99
2017-12-12T00:59:51.703Z,99.99
2017-12-12T01:00:32.320Z,99.99
2017-12-12T01:01:12.860Z,99.99
2017-12-12T01:01:53.422Z,99.99
2017-12-12T01:02:34.021Z,99.99
2017-12-12T01:03:14.615Z,99.99
2017-12-12T01:03:55.180Z,99.99
2017-12-12T01:04:35.749Z,99.99
2017-12-12T01:05:16.345Z,99.99
2017-12-12T01:05:56.919Z,99.99
2017-12-12T01:06:37.528Z,99.99
2017-12-12T01:07:18.176Z,99.99
2017-12-12T01:07:58.748Z,99.99
2017-12-12T01:08:39.331Z,99.99
2017-12-12T01:09:19.945Z,99.99
2017-12-12T01:10:00.480Z,99.99
2017-12-12T01:10:41.105Z,99.99
2017-12-12T01:11:21.621Z,99.99
2017-12-12T01:12:02.203Z,99.99
2017-12-12T01:12:42.834Z,99.99
2017-12-12T01:13:23.410Z,99.99
2017-12-12T01:14:03.993Z,99.99
2017-12-12T01:14:44.587Z,99.99
2017-12-12T01:15:25.165Z,99.99
2017-12-12T01:16:05.756Z,99.99
2017-12-12T01:16:46.362Z,99.99
2017-12-12T01:17:26.926Z,99.83
2017-12-12T01:18:07.501Z,99.92
2017-12-12T01:18:48.134Z,99.92
2017-12-12T01:19:28.692Z,99.92
2017-12-12T01:20:09.246Z,99.92
2017-12-12T01:20:49.806Z,99.99
2017-12-12T01:21:30.389Z,99.83
2017-12-12T01:22:10.954Z,99.73
2017-12-12T01:22:51.529Z,99.73
2017-12-12T01:23:32.119Z,99.64
2017-12-12T01:24:12.706Z,99.92
2017-12-12T01:24:53.283Z,99.99
2017-12-12T01:25:33.865Z,99.99
2017-12-12T01:26:14.433Z,99.99
2017-12-12T01:26:54.996Z,99.99
2017-12-12T01:27:35.555Z,99.99
2017-12-12T01:28:16.125Z,99.99
2017-12-12T01:28:56.738Z,99.99
2017-12-12T01:29:37.306Z,99.99
2017-12-12T01:30:17.883Z,99.99
2017-12-12T01:30:58.459Z,99.99
2017-12-12T01:31:39.028Z,99.99
2017-12-12T01:32:19.610Z,99.99
2017-12-12T01:33:00.195Z,99.99
2017-12-12T01:33:40.758Z,99.99
2017-12-12T01:34:21.349Z,99.99
2017-12-12T01:35:01.958Z,99.99
2017-12-12T01:35:42.524Z,99.99
2017-12-12T01:36:23.112Z,99.99
2017-12-12T01:37:03.701Z,99.99
2017-12-12T01:37:44.287Z,99.73
2017-12-12T01:38:24.860Z,99.99
2017-12-12T01:39:05.423Z,99.83
2017-12-12T01:39:46.018Z,99.83
2017-12-12T01:40:26.571Z,99.99
2017-12-12T01:41:07.127Z,99.73
2017-12-12T01:41:47.721Z,99.99
2017-12-12T01:42:28.295Z,99.99
2017-12-12T01:43:08.876Z,99.99
2017-12-12T01:43:49.478Z,99.99
2017-12-12T01:44:30.035Z,99.73
2017-12-12T01:45:10.613Z,99.73
2017-12-12T01:45:51.188Z,99.99
2017-12-12T01:46:31.777Z,99.99
2017-12-12T01:47:12.340Z,99.92
2017-12-12T01:47:52.927Z,99.73
2017-12-12T01:48:33.496Z,99.73
2017-12-12T01:49:14.078Z,99.73
2017-12-12T01:49:54.671Z,99.73
2017-12-12T01:50:35.241Z,99.73
2017-12-12T01:51:15.804Z,99.73
2017-12-12T01:51:56.385Z,99.73
2017-12-12T01:52:36.950Z,99.83
2017-12-12T01:53:17.525Z,99.73
2017-12-12T01:53:58.144Z,99.99
2017-12-12T01:54:38.753Z,99.99
2017-12-12T01:55:19.329Z,99.92
2017-12-12T01:55:59.898Z,99.99
2017-12-12T01:56:40.468Z,99.99
2017-12-12T01:57:21.075Z,99.99
2017-12-12T01:58:01.623Z,99.99
2017-12-12T01:58:42.198Z,99.83
2017-12-12T01:59:22.752Z,99.99
2017-12-12T02:00:03.325Z,99.99
2017-12-12T02:00:43.886Z,99.99
2017-12-12T02:01:24.449Z,99.99
2017-12-12T02:02:05.037Z,99.99
2017-12-12T02:02:45.627Z,99.92
2017-12-12T02:03:26.179Z,99.99
2017-12-12T02:04:06.746Z,99.99
2017-12-12T02:04:47.336Z,99.99
2017-12-12T02:05:27.888Z,99.99
2017-12-12T02:06:08.464Z,99.99
2017-12-12T02:06:49.067Z,99.99
2017-12-12T02:07:29.660Z,99.99
2017-12-12T02:08:10.265Z,99.99
2017-12-12T02:08:50.908Z,99.83
2017-12-12T02:09:31.507Z,99.83
2017-12-12T02:10:12.091Z,99.83
2017-12-12T02:10:52.646Z,99.99
2017-12-12T02:11:33.242Z,99.64
2017-12-12T02:12:13.820Z,99.54
2017-12-12T02:12:54.378Z,99.99
2017-12-12T02:13:34.945Z,99.44
2017-12-12T02:14:15.515Z,99.44
2017-12-12T02:14:56.085Z,99.54
2017-12-12T02:15:36.649Z,99.44
2017-12-12T02:16:17.216Z,99.44
2017-12-12T02:16:57.795Z,99.16
2017-12-12T02:17:38.365Z,99.64
2017-12-12T02:18:19.003Z,99.64
2017-12-12T02:18:59.597Z,99.64
2017-12-12T02:19:40.178Z,99.54
2017-12-12T02:20:20.786Z,99.54
2017-12-12T02:21:01.417Z,99.64
2017-12-12T02:21:42.037Z,99.44
2017-12-12T02:22:22.622Z,99.44
2017-12-12T02:23:03.205Z,99.54
2017-12-12T02:23:43.764Z,99.26
2017-12-12T02:24:24.344Z,98.97
2017-12-12T02:25:04.898Z,98.97
2017-12-12T02:25:45.473Z,99.16
2017-12-12T02:26:26.040Z,99.54
2017-12-12T02:27:06.625Z,98.97
2017-12-12T02:27:47.181Z,99.64
2017-12-12T02:28:27.753Z,99.54
2017-12-12T02:29:08.350Z,99.07
2017-12-12T02:29:48.977Z,99.16
2017-12-12T02:30:29.550Z,99.16
2017-12-12T02:31:10.174Z,99.26
2017-12-12T02:31:50.756Z,98.5
2017-12-12T02:32:31.407Z,98.88
2017-12-12T02:33:12.003Z,98.5
2017-12-12T02:33:52.570Z,98.69
2017-12-12T02:34:33.148Z,98.88
2017-12-12T02:35:13.714Z,99.16
2017-12-12T02:35:54.313Z,99.07
2017-12-12T02:36:34.868Z,98.69
2017-12-12T02:37:15.447Z,98.69
2017-12-12T02:37:56.036Z,98.88
2017-12-12T02:38:36.591Z,98.79
2017-12-12T02:39:17.173Z,98.97
2017-12-12T02:39:57.725Z,98.4
2017-12-12T02:40:38.279Z,98.69
2017-12-12T02:41:18.848Z,98.5
2017-12-12T02:41:59.413Z,98.69
2017-12-12T02:42:40.042Z,98.5
2017-12-12T02:43:20.621Z,98.59
2017-12-12T02:44:01.187Z,98.4
2017-12-12T02:44:41.766Z,98.69
2017-12-12T02:45:22.359Z,98.5
2017-12-12T02:46:02.942Z,98.69
2017-12-12T02:46:43.533Z,98.5
2017-12-12T02:47:24.108Z,98.5
2017-12-12T02:48:04.677Z,98.02
2017-12-12T02:48:45.244Z,98.12
2017-12-12T02:49:25.822Z,98.12
2017-12-12T02:50:06.392Z,97.92
2017-12-12T02:50:46.963Z,97.92
2017-12-12T02:51:27.540Z,97.92
2017-12-12T02:52:08.129Z,98.21
2017-12-12T02:52:48.718Z,98.02
2017-12-12T02:53:29.280Z,98.02
2017-12-12T02:54:09.860Z,98.02
2017-12-12T02:54:50.435Z,98.12
2017-12-12T02:55:31.002Z,97.45
2017-12-12T02:56:11.548Z,97.27
2017-12-12T02:56:52.102Z,97.83
2017-12-12T02:57:32.680Z,96.98
2017-12-12T02:58:13.255Z,96.98
2017-12-12T02:58:53.811Z,97.83
2017-12-12T02:59:34.393Z,97.07
2017-12-12T03:00:14.956Z,97.45
2017-12-12T03:00:55.520Z,97.36
2017-12-12T03:01:36.090Z,97.83
2017-12-12T03:02:16.665Z,98.12
2017-12-12T03:02:57.233Z,97.83
2017-12-12T03:03:37.804Z,97.45
2017-12-12T03:04:18.389Z,97.74
2017-12-12T03:04:58.954Z,97.64
2017-12-12T03:05:39.544Z,97.55
2017-12-12T03:06:20.105Z,97.74
2017-12-12T03:07:00.690Z,97.45
2017-12-12T03:07:41.306Z,97.64
2017-12-12T03:08:21.871Z,97.83
2017-12-12T03:09:02.463Z,96.88
2017-12-12T03:09:43.039Z,97.17
2017-12-12T03:10:23.659Z,96.69
2017-12-12T03:11:04.190Z,96.88
2017-12-12T03:11:44.789Z,97.17
2017-12-12T03:12:25.343Z,97.17
2017-12-12T03:13:05.915Z,96.79
2017-12-12T03:13:46.486Z,97.45
2017-12-12T03:14:27.044Z,96.6
2017-12-12T03:15:07.643Z,96.88
2017-12-12T03:15:48.210Z,96.88
2017-12-12T03:16:28.778Z,96.88
2017-12-12T03:17:09.362Z,96.5
2017-12-12T03:17:49.934Z,96.41
2017-12-12T03:18:30.524Z,95.94
2017-12-12T03:19:11.108Z,95.75
2017-12-12T03:19:51.671Z,95.84
2017-12-12T03:20:32.275Z,96.22
2017-12-12T03:21:12.874Z,95.75
2017-12-12T03:21:53.444Z,95.55
2017-12-12T03:22:34.020Z,95.65
2017-12-12T03:23:14.592Z,95.65
2017-12-12T03:23:55.201Z,95.75
2017-12-12T03:24:35.746Z,95.75
2017-12-12T03:25:16.295Z,96.03
2017-12-12T03:25:56.862Z,96.12
2017-12-12T03:26:37.508Z,96.03
2017-12-12T03:27:18.123Z,95.75
2017-12-12T03:27:58.712Z,95.84
2017-12-12T03:28:39.330Z,96.12
2017-12-12T03:29:19.887Z,96.12
2017-12-12T03:30:00.473Z,96.03
2017-12-12T03:30:41.035Z,96.12
2017-12-12T03:31:21.607Z,95.65
2017-12-12T03:32:02.165Z,95.75
2017-12-12T03:32:42.721Z,95.36
2017-12-12T03:33:23.310Z,95.08
2017-12-12T03:34:03.883Z,95.36
2017-12-12T03:34:44.461Z,95.65
2017-12-12T03:35:25.029Z,95.36
2017-12-12T03:36:05.592Z,95.65
2017-12-12T03:36:46.157Z,95.36
2017-12-12T03:37:26.734Z,95.36
2017-12-12T03:38:07.310Z,94.89
2017-12-12T03:38:47.913Z,95.17
2017-12-12T03:39:28.491Z,95.08
2017-12-12T03:40:09.038Z,95.08
2017-12-12T03:40:49.599Z,95.27
2017-12-12T03:41:30.168Z,95.17
2017-12-12T03:42:10.752Z,94.7
2017-12-12T03:42:51.363Z,94.98
2017-12-12T03:43:31.942Z,94.79
2017-12-12T03:44:12.541Z,94.51
2017-12-12T03:44:53.105Z,93.94
2017-12-12T03:45:33.670Z,94.03
2017-12-12T03:46:14.259Z,94.13
2017-12-12T03:46:54.818Z,94.23
2017-12-12T03:47:35.387Z,94.13
2017-12-12T03:48:15.953Z,94.03
2017-12-12T03:48:56.516Z,94.03
2017-12-12T03:49:37.063Z,93.84
2017-12-12T03:50:17.652Z,93.94
2017-12-12T03:50:58.289Z,94.03
2017-12-12T03:51:38.859Z,94.03
2017-12-12T03:52:19.471Z,94.23
2017-12-12T03:53:00.042Z,94.03
2017-12-12T03:53:40.614Z,93.65
2017-12-12T03:54:21.179Z,93.56
2017-12-12T03:55:01.735Z,93.75
2017-12-12T03:55:42.302Z,93.18
2017-12-12T03:56:22.926Z,93.27
2017-12-12T03:57:03.480Z,93.27
2017-12-12T03:57:44.094Z,93.27
2017-12-12T03:58:24.656Z,92.9
2017-12-12T03:59:05.227Z,93.18
2017-12-12T03:59:45.820Z,93.37
2017-12-12T04:00:26.395Z,93.08
2017-12-12T04:01:06.971Z,93.08
2017-12-12T04:01:47.544Z,92.99
2017-12-12T04:02:28.127Z,92.99
2017-12-12T04:03:08.691Z,92.42
2017-12-12T04:03:49.278Z,92.51
2017-12-12T04:04:29.921Z,92.32
2017-12-12T04:05:10.462Z,93.18
2017-12-12T04:05:51.167Z,93.18
2017-12-12T04:06:31.730Z,92.42
2017-12-12T04:07:12.319Z,92.61
2017-12-12T04:07:53.008Z,91.94
2017-12-12T04:08:33.586Z,92.42
2017-12-12T04:09:14.151Z,91.85
2017-12-12T04:09:54.723Z,92.42
2017-12-12T04:10:35.301Z,92.23
2017-12-12T04:11:15.825Z,92.42
2017-12-12T04:11:56.404Z,91.61
2017-12-12T04:12:36.981Z,91.42
2017-12-12T04:13:17.569Z,91.66
2017-12-12T04:13:58.126Z,91.85
2017-12-12T04:14:38.760Z,91.89
2017-12-12T04:15:19.332Z,91.33
2017-12-12T04:15:59.924Z,91.61
2017-12-12T04:16:40.515Z,91.71
2017-12-12T04:17:21.116Z,91.61
2017-12-12T04:18:01.696Z,91.52
2017-12-12T04:18:42.296Z,91.94
2017-12-12T04:19:22.853Z,91.85
2017-12-12T04:20:03.493Z,91.61
2017-12-12T04:20:44.053Z,91.8
2017-12-12T04:21:24.623Z,91.61
2017-12-12T04:22:05.211Z,91.42
2017-12-12T04:22:45.781Z,91.42
2017-12-12T04:23:26.358Z,91.13
2017-12-12T04:24:06.934Z,91.47
2017-12-12T04:24:47.547Z,91.52
2017-12-12T04:25:28.133Z,91.71
2017-12-12T04:26:08.739Z,91.61
2017-12-12T04:26:49.352Z,91.89
2017-12-12T04:27:29.918Z,91.75
2017-12-12T04:28:10.490Z,91.33
2017-12-12T04:28:51.074Z,91.33
2017-12-12T04:29:31.673Z,91.04
2017-12-12T04:30:12.245Z,91.13
2017-12-12T04:30:52.876Z,91.23
2017-12-12T04:31:33.480Z,91.33
2017-12-12T04:32:14.090Z,90.94
2017-12-12T04:32:54.685Z,90.56
2017-12-12T04:33:35.266Z,90.85
2017-12-12T04:34:15.836Z,90.66
2017-12-12T04:34:56.417Z,90.85
2017-12-12T04:35:36.990Z,90.85
2017-12-12T04:36:17.554Z,90.85
2017-12-12T04:36:58.140Z,90.47
2017-12-12T04:37:38.740Z,90.85
2017-12-12T04:38:19.340Z,91.04
2017-12-12T04:38:59.921Z,90.94
2017-12-12T04:39:40.520Z,90.37
2017-12-12T04:40:21.078Z,90.85
2017-12-12T04:41:01.636Z,90.94
2017-12-12T04:41:42.199Z,90.85
2017-12-12T04:42:22.809Z,90.66
2017-12-12T04:43:03.422Z,90.71
2017-12-12T04:43:44.037Z,91.13
2017-12-12T04:44:24.636Z,91.04
2017-12-12T04:45:05.252Z,90.56
2017-12-12T04:45:45.833Z,90.85
2017-12-12T04:46:26.431Z,90.94
2017-12-12T04:47:06.995Z,90.47
2017-12-12T04:47:47.580Z,90.56
2017-12-12T04:48:28.170Z,90.94
2017-12-12T04:49:08.842Z,91.09
2017-12-12T04:49:49.437Z,90.94
2017-12-12T04:50:30.013Z,90.66
2017-12-12T04:51:10.620Z,91.04
2017-12-12T04:51:51.211Z,91.23
2017-12-12T04:52:31.794Z,90.66
2017-12-12T04:53:12.373Z,90.85
2017-12-12T04:53:52.949Z,90.66
2017-12-12T04:54:33.526Z,90.99
2017-12-12T04:55:14.128Z,90.37
2017-12-12T04:55:54.706Z,90.47
2017-12-12T04:56:35.278Z,90.47
2017-12-12T04:57:15.856Z,90.75
2017-12-12T04:57:56.424Z,90.33
2017-12-12T04:58:36.990Z,90.42
2017-12-12T04:59:17.569Z,90.09
2017-12-12T04:59:58.192Z,90.37
2017-12-12T05:00:38.745Z,90.37
2017-12-12T05:01:19.312Z,90.47
2017-12-12T05:01:59.881Z,90.28
2017-12-12T05:02:40.474Z,90.37
2017-12-12T05:03:21.043Z,90.52
2017-12-12T05:04:01.589Z,90.19
2017-12-12T05:04:42.163Z,90.37
2017-12-12T05:05:22.787Z,90.37
2017-12-12T05:06:03.358Z,89.76
2017-12-12T05:06:43.961Z,90.19
2017-12-12T05:07:24.524Z,90
2017-12-12T05:08:05.086Z,90.28
2017-12-12T05:08:45.744Z,90
2017-12-12T05:09:26.312Z,90.19
2017-12-12T05:10:06.884Z,90.28
2017-12-12T05:10:47.461Z,90.56
2017-12-12T05:11:28.080Z,90
2017-12-12T05:12:08.672Z,90.19
2017-12-12T05:12:49.266Z,90.19
2017-12-12T05:13:29.833Z,89.38
2017-12-12T05:14:10.405Z,89.71
2017-12-12T05:14:50.994Z,89.95
2017-12-12T05:15:31.583Z,90.09
2017-12-12T05:16:12.155Z,89.71
2017-12-12T05:16:52.763Z,90.47
2017-12-12T05:17:33.351Z,90.19
2017-12-12T05:18:13.944Z,89.71
2017-12-12T05:18:54.510Z,89.71
2017-12-12T05:19:35.095Z,89.71
2017-12-12T05:20:15.818Z,89.52
2017-12-12T05:20:56.326Z,89.8
2017-12-12T05:21:36.960Z,89.42
2017-12-12T05:22:17.543Z,89.14
2017-12-12T05:22:58.202Z,88.95
2017-12-12T05:23:38.827Z,89.14
2017-12-12T05:24:19.452Z,89.23
2017-12-12T05:25:00.018Z,89.33
2017-12-12T05:25:40.604Z,88.95
2017-12-12T05:26:21.243Z,89.33
2017-12-12T05:27:01.886Z,89.23
2017-12-12T05:27:42.537Z,89.61
2017-12-12T05:28:23.163Z,88.85
2017-12-12T05:29:03.737Z,88.95
2017-12-12T05:29:44.323Z,88.67
2017-12-12T05:30:24.940Z,89.04
2017-12-12T05:31:05.563Z,88.85
2017-12-12T05:31:46.135Z,88.95
2017-12-12T05:32:26.707Z,88.67
2017-12-12T05:33:07.277Z,88.28
2017-12-12T05:33:47.853Z,88.47
2017-12-12T05:34:28.433Z,88.28
2017-12-12T05:35:08.995Z,88.47
2017-12-12T05:35:54.210Z,88.85
2017-12-12T05:36:54.294Z,88.76
2017-12-12T05:37:41.314Z,88.38
2017-12-12T05:38:21.871Z,88.38
2017-12-12T05:39:02.569Z,88.09
2017-12-12T05:39:43.174Z,87.9
2017-12-12T05:40:23.772Z,88.09
2017-12-12T05:41:04.344Z,88.09
2017-12-12T05:41:44.904Z,87.71
2017-12-12T05:42:25.480Z,87.34
2017-12-12T05:43:06.040Z,87.81
2017-12-12T05:43:46.722Z,87.34
2017-12-12T05:44:27.242Z,87.43
2017-12-12T05:45:07.824Z,87.24
2017-12-12T05:45:48.396Z,87.05
2017-12-12T05:46:28.972Z,87.24
2017-12-12T05:47:09.678Z,86.95
2017-12-12T05:47:50.285Z,87.05
2017-12-12T05:48:30.856Z,87.05
2017-12-12T05:49:11.458Z,87.14
2017-12-12T05:49:52.063Z,86.76
2017-12-12T05:50:32.647Z,86.86
2017-12-12T05:51:13.231Z,86.86
2017-12-12T05:51:53.808Z,86.95
2017-12-12T05:52:34.412Z,86.38
2017-12-12T05:53:15.045Z,86
2017-12-12T05:53:55.636Z,86.19
2017-12-12T05:54:36.307Z,86.1
2017-12-12T05:55:16.962Z,86.19
2017-12-12T05:55:57.527Z,86.1
2017-12-12T05:56:38.111Z,86.19
2017-12-12T05:57:18.697Z,86.19
2017-12-12T05:57:59.367Z,85.91
2017-12-12T05:58:40.662Z,86
2017-12-12T05:59:21.591Z,86.19
2017-12-12T06:00:02.938Z,86.1
2017-12-12T06:00:43.771Z,86.1
2017-12-12T06:01:24.423Z,86.1
2017-12-12T06:02:05.050Z,85.62
2017-12-12T06:02:45.701Z,86.1
2017-12-12T06:03:26.695Z,86.19
2017-12-12T06:04:07.396Z,86
2017-12-12T06:04:48.018Z,86.19
2017-12-12T06:05:28.698Z,85.24
2017-12-12T06:06:09.299Z,85.43
2017-12-12T06:06:49.880Z,85.43
2017-12-12T06:07:30.459Z,85.05
2017-12-12T06:08:11.081Z,85.15
2017-12-12T06:08:51.714Z,84.86
2017-12-12T06:09:32.300Z,84.95
2017-12-12T06:10:12.903Z,84.86
2017-12-12T06:10:53.503Z,85.05
2017-12-12T06:11:34.159Z,84.95
2017-12-12T06:12:14.760Z,85.15
2017-12-12T06:12:55.344Z,85.43
2017-12-12T06:13:35.987Z,85.15
2017-12-12T06:14:16.602Z,84.48
2017-12-12T06:14:57.199Z,84.39
2017-12-12T06:15:37.850Z,83.72
2017-12-12T06:16:18.491Z,83.82
2017-12-12T06:16:59.078Z,83.91
2017-12-12T06:17:39.688Z,84.1
2017-12-12T06:18:20.254Z,83.72
2017-12-12T06:19:00.883Z,83.91
2017-12-12T06:19:41.471Z,83.34
2017-12-12T06:20:22.084Z,83.15
2017-12-12T06:21:02.661Z,82.49
2017-12-12T06:21:43.254Z,82.29
2017-12-12T06:22:23.847Z,82.96
2017-12-12T06:23:04.422Z,83.53
2017-12-12T06:23:44.991Z,82.96
2017-12-12T06:24:25.580Z,83.44
2017-12-12T06:25:07.248Z,83.53
2017-12-12T06:25:47.812Z,83.53
2017-12-12T06:26:28.396Z,82.96
2017-12-12T06:27:08.967Z,82.49
2017-12-12T06:27:49.550Z,82.96
2017-12-12T06:28:30.147Z,82.77
2017-12-12T06:29:10.769Z,82.29
2017-12-12T06:29:51.355Z,82.58
2017-12-12T06:30:32.173Z,82.58
2017-12-12T06:31:12.763Z,82.96
2017-12-12T06:31:53.322Z,82.49
2017-12-12T06:32:33.902Z,82.39
2017-12-12T06:33:14.473Z,82.1
2017-12-12T06:33:55.077Z,82.2
2017-12-12T06:34:35.627Z,82.29
2017-12-12T06:35:16.207Z,81.92
2017-12-12T06:35:56.784Z,82.2
2017-12-12T06:36:37.388Z,82.39
2017-12-12T06:37:18.020Z,82.29
2017-12-12T06:37:58.572Z,82.29
2017-12-12T06:38:39.165Z,82.96
2017-12-12T06:39:19.736Z,82.58
2017-12-12T06:40:00.314Z,82.1
2017-12-12T06:40:40.893Z,82.29
2017-12-12T06:41:21.458Z,81.92
2017-12-12T06:42:02.066Z,81.54
2017-12-12T06:42:42.592Z,81.54
2017-12-12T06:43:23.208Z,81.06
2017-12-12T06:44:03.760Z,81.16
2017-12-12T06:44:44.336Z,81.16
2017-12-12T06:45:24.947Z,81.16
2017-12-12T06:46:05.517Z,80.77
2017-12-12T06:46:46.083Z,80.96
2017-12-12T06:47:26.704Z,80.87
2017-12-12T06:48:07.290Z,81.35
2017-12-12T06:48:47.872Z,80.58
2017-12-12T06:49:28.469Z,80.3
2017-12-12T06:50:09.028Z,80.68
2017-12-12T06:50:49.635Z,80.68
2017-12-12T06:51:30.188Z,80.87
2017-12-12T06:52:10.753Z,80.87
2017-12-12T06:52:51.352Z,80.68
2017-12-12T06:53:31.960Z,81.16
2017-12-12T06:54:12.524Z,80.87
2017-12-12T06:54:53.113Z,81.16
2017-12-12T06:55:33.691Z,81.44
2017-12-12T06:56:14.252Z,80.96
2017-12-12T06:56:54.812Z,81.16
2017-12-12T06:57:35.472Z,81.44
2017-12-12T06:58:16.075Z,80.87
2017-12-12T06:58:56.636Z,81.06
2017-12-12T06:59:37.213Z,80.87
2017-12-12T07:00:17.781Z,80.96
2017-12-12T07:00:58.435Z,81.25
2017-12-12T07:01:39.092Z,81.25
2017-12-12T07:02:19.692Z,81.35
2017-12-12T07:03:00.269Z,80.96
2017-12-12T07:03:40.862Z,80.49
2017-12-12T07:04:21.421Z,80.4
2017-12-12T07:05:01.995Z,80.21
2017-12-12T07:05:42.591Z,80.58
2017-12-12T07:06:23.171Z,81.16
2017-12-12T07:07:03.733Z,80.77
2017-12-12T07:07:44.305Z,80.4
2017-12-12T07:08:24.891Z,80.02
2017-12-12T07:09:05.479Z,80.58
2017-12-12T07:09:46.033Z,80.11
2017-12-12T07:10:26.639Z,80.3
2017-12-12T07:11:07.236Z,80.68
2017-12-12T07:11:47.909Z,80.4
2017-12-12T07:12:28.477Z,80.3
2017-12-12T07:13:09.050Z,80.21
2017-12-12T07:13:49.616Z,80.21
2017-12-12T07:14:30.201Z,79.44
2017-12-12T07:15:10.784Z,79.44
2017-12-12T07:15:51.359Z,79.73
2017-12-12T07:16:31.960Z,80.11
2017-12-12T07:17:12.570Z,80.02
2017-12-12T07:17:53.189Z,80.3
2017-12-12T07:18:33.726Z,79.92
2017-12-12T07:19:14.282Z,80.4
2017-12-12T07:19:54.856Z,80.02
2017-12-12T07:20:35.441Z,80.4
2017-12-12T07:21:16.030Z,80.11
2017-12-12T07:21:56.606Z,80.21
2017-12-12T07:22:37.196Z,79.92
2017-12-12T07:23:17.777Z,80.21
2017-12-12T07:23:58.365Z,79.73
2017-12-12T07:24:39.050Z,79.63
2017-12-12T07:25:19.645Z,79.73
2017-12-12T07:26:00.297Z,79.25
2017-12-12T07:26:40.862Z,79.06
2017-12-12T07:27:21.491Z,79.06
2017-12-12T07:28:02.150Z,79.16
2017-12-12T07:28:42.692Z,78.88
2017-12-12T07:29:23.285Z,79.06
2017-12-12T07:30:03.863Z,79.06
2017-12-12T07:30:44.483Z,79.54
2017-12-12T07:31:25.067Z,78.88
2017-12-12T07:32:05.671Z,78.97
2017-12-12T07:32:46.207Z,78.74
2017-12-12T07:33:26.765Z,78.3
2017-12-12T07:34:07.335Z,78.83
2017-12-12T07:34:47.912Z,79.06
2017-12-12T07:35:28.498Z,78.3
2017-12-12T07:36:09.056Z,78.69
2017-12-12T07:36:49.645Z,78.02
2017-12-12T07:37:30.270Z,79.83
2017-12-12T07:38:10.827Z,80.96
2017-12-12T07:38:52.020Z,81.54
2017-12-12T07:40:44.962Z,79.25
2017-12-12T07:41:25.614Z,79.3
2017-12-12T07:42:06.217Z,80.24
2017-12-12T07:42:46.961Z,79.77
2017-12-12T07:43:27.631Z,79.01
2017-12-12T07:44:08.203Z,78.91
2017-12-12T07:44:49.323Z,78.72
2017-12-12T07:45:29.865Z,78.91
2017-12-12T07:46:10.420Z,79.49
2017-12-12T07:46:51.046Z,77.87
2017-12-12T07:47:31.697Z,76.67
2017-12-12T07:48:12.257Z,76.86
2017-12-12T07:48:52.866Z,76.57
2017-12-12T07:49:33.457Z,75.62
2017-12-12T07:50:14.031Z,75.62
2017-12-12T07:50:54.597Z,76.57
2017-12-12T07:51:35.174Z,75.91
2017-12-12T07:52:15.729Z,74.67
2017-12-12T07:52:56.294Z,73.25
2017-12-12T07:53:36.863Z,72.58
2017-12-12T07:54:17.426Z,71.34
2017-12-12T07:54:57.996Z,71.53
2017-12-12T07:55:38.604Z,71.63
2017-12-12T07:56:19.164Z,72.01
2017-12-12T07:56:59.747Z,72.26
2017-12-12T07:57:40.328Z,72.07
2017-12-12T07:58:20.896Z,73.02
2017-12-12T07:59:01.479Z,73.59
2017-12-12T07:59:42.038Z,74.07
2017-12-12T08:00:22.618Z,73.97
2017-12-12T08:01:03.209Z,73.88
2017-12-12T08:01:43.788Z,73.69
2017-12-12T08:02:24.368Z,73.93
2017-12-12T08:03:04.972Z,73.74
2017-12-12T08:03:45.547Z,74.12
2017-12-12T08:04:26.132Z,74.31
2017-12-12T08:05:06.724Z,74.31
2017-12-12T08:05:47.287Z,74.6
2017-12-12T08:06:27.889Z,74.79
2017-12-12T08:07:08.469Z,74.88
2017-12-12T08:07:49.042Z,75.17
2017-12-12T08:08:29.606Z,74.88
2017-12-12T08:09:10.184Z,75.17
2017-12-12T08:09:50.752Z,75.84
2017-12-12T08:10:31.360Z,75.45
2017-12-12T08:11:11.932Z,75.64
2017-12-12T08:11:52.536Z,75.64
2017-12-12T08:12:33.090Z,75.84
2017-12-12T08:13:13.673Z,75.84
2017-12-12T08:13:54.254Z,75.74
2017-12-12T08:14:35.032Z,75.74
2017-12-12T08:15:15.622Z,75.64
2017-12-12T08:15:56.192Z,76.12
2017-12-12T08:16:36.773Z,76.12
2017-12-12T08:17:17.364Z,76.03
2017-12-12T08:17:57.957Z,76.03
2017-12-12T08:18:38.522Z,75.64
2017-12-12T08:19:19.102Z,75.84
2017-12-12T08:19:59.705Z,76.03
2017-12-12T08:20:40.288Z,75.93
2017-12-12T08:21:20.861Z,76.5
2017-12-12T08:22:01.461Z,76.18
2017-12-12T08:22:42.135Z,76.65
2017-12-12T08:23:22.687Z,76.31
2017-12-12T08:24:03.241Z,76.75
2017-12-12T08:24:43.825Z,76.75
2017-12-12T08:25:24.456Z,77.03
2017-12-12T08:26:05.044Z,76.75
2017-12-12T08:26:45.687Z,77.12
2017-12-12T08:27:26.253Z,77.31
2017-12-12T08:28:06.836Z,77.51
2017-12-12T08:28:47.439Z,78.55
2017-12-12T08:29:28.090Z,78.64
2017-12-12T08:30:08.649Z,78.83
2017-12-12T08:30:49.211Z,78.64
2017-12-12T08:31:29.825Z,77.89
2017-12-12T08:32:10.386Z,77.89
2017-12-12T08:32:50.946Z,77.41
2017-12-12T08:33:31.540Z,77.03
2017-12-12T08:34:12.097Z,76.84
2017-12-12T08:34:52.687Z,76.61
2017-12-12T08:35:33.229Z,76.14
2017-12-12T08:36:13.816Z,75.76
2017-12-12T08:36:54.403Z,75.76
2017-12-12T08:37:34.967Z,76.14
2017-12-12T08:38:15.555Z,75.76
2017-12-12T08:38:56.151Z,76.61
2017-12-12T08:39:36.761Z,76.9
2017-12-12T08:40:17.342Z,76.99
2017-12-12T08:40:57.902Z,77.18
2017-12-12T08:41:38.481Z,77.28
2017-12-12T08:42:19.078Z,77.56
2017-12-12T08:42:59.670Z,77.75
2017-12-12T08:43:40.259Z,77.56
2017-12-12T08:44:20.897Z,77.56
2017-12-12T08:45:01.497Z,76.99
2017-12-12T08:45:42.097Z,77.09